sensor_id;sensor_type;location;lat;lon;timestamp;temperature;humidity
8633;DHT22;4354;49.832;10.746;2022-08-14T00:01:45;17.40;99.90
8633;DHT22;4354;49.832;10.746;2022-08-14T00:04:26;17.40;99.90
8633;DHT22;4354;49.832;10.746;2022-08-14T00:07:13;17.30;99.90
8633;DHT22;4354;49.832;10.746;2022-08-14T00:09:42;17.30;99.90
8633;DHT22;4354;49.832;10.746;2022-08-14T00:12:40;17.30;99.90
8633;DHT22;4354;49.832;10.746;2022-08-14T00:15:21;17.20;99.90
8633;DHT22;4354;49.832;10.746;2022-08-14T00:17:57;17.10;99.90
8633;DHT22;4354;49.832;10.746;2022-08-14T00:20:35;17.00;99.90
8633;DHT22;4354;49.832;10.746;2022-08-14T00:23:12;17.00;99.90
8633;DHT22;4354;49.832;10.746;2022-08-14T00:25:45;17.00;99.90
8633;DHT22;4354;49.832;10.746;2022-08-14T00:28:31;17.00;99.90
8633;DHT22;4354;49.832;10.746;2022-08-14T00:31:04;17.00;99.90
8633;DHT22;4354;49.832;10.746;2022-08-14T00:33:36;17.10;99.90
8633;DHT22;4354;49.832;10.746;2022-08-14T00:36:20;17.00;99.90
8633;DHT22;4354;49.832;10.746;2022-08-14T00:39:15;16.90;99.90
8633;DHT22;4354;49.832;10.746;2022-08-14T00:41:45;16.80;99.90
8633;DHT22;4354;49.832;10.746;2022-08-14T00:44:20;16.80;99.90
8633;DHT22;4354;49.832;10.746;2022-08-14T00:47:03;16.60;99.90
8633;DHT22;4354;49.832;10.746;2022-08-14T00:49:40;16.60;99.90
8633;DHT22;4354;49.832;10.746;2022-08-14T00:52:16;16.50;99.90
8633;DHT22;4354;49.832;10.746;2022-08-14T00:54:49;16.50;99.90
8633;DHT22;4354;49.832;10.746;2022-08-14T00:57:27;16.50;99.90
8633;DHT22;4354;49.832;10.746;2022-08-14T01:00:01;16.50;99.90
8633;DHT22;4354;49.832;10.746;2022-08-14T01:02:57;16.50;99.90
8633;DHT22;4354;49.832;10.746;2022-08-14T01:05:36;16.40;99.90
8633;DHT22;4354;49.832;10.746;2022-08-14T01:08:25;16.40;99.90
8633;DHT22;4354;49.832;10.746;2022-08-14T01:11:18;16.40;99.90
8633;DHT22;4354;49.832;10.746;2022-08-14T01:13:48;16.30;99.90
8633;DHT22;4354;49.832;10.746;2022-08-14T01:16:27;16.30;99.90
8633;DHT22;4354;49.832;10.746;2022-08-14T01:19:00;16.20;99.90
8633;DHT22;4354;49.832;10.746;2022-08-14T01:21:47;16.10;99.90
8633;DHT22;4354;49.832;10.746;2022-08-14T01:24:20;16.10;99.90
8633;DHT22;4354;49.832;10.746;2022-08-14T01:26:57;16.10;99.90
8633;DHT22;4354;49.832;10.746;2022-08-14T01:29:31;16.00;99.90
8633;DHT22;4354;49.832;10.746;2022-08-14T01:32:28;16.00;99.90
8633;DHT22;4354;49.832;10.746;2022-08-14T01:35:08;15.90;99.90
8633;DHT22;4354;49.832;10.746;2022-08-14T01:37:47;15.90;99.90
8633;DHT22;4354;49.832;10.746;2022-08-14T01:40:27;15.80;99.90
8633;DHT22;4354;49.832;10.746;2022-08-14T01:43:12;15.80;99.90
8633;DHT22;4354;49.832;10.746;2022-08-14T01:45:48;15.90;99.90
8633;DHT22;4354;49.832;10.746;2022-08-14T01:48:34;15.90;99.90
8633;DHT22;4354;49.832;10.746;2022-08-14T01:51:12;15.90;99.90
8633;DHT22;4354;49.832;10.746;2022-08-14T01:53:58;15.90;99.90
8633;DHT22;4354;49.832;10.746;2022-08-14T01:56:30;15.80;99.90
8633;DHT22;4354;49.832;10.746;2022-08-14T01:59:27;15.80;99.90
8633;DHT22;4354;49.832;10.746;2022-08-14T02:02:06;15.80;99.90
8633;DHT22;4354;49.832;10.746;2022-08-14T02:04:50;15.70;99.90
8633;DHT22;4354;49.832;10.746;2022-08-14T02:07:42;15.70;99.90
8633;DHT22;4354;49.832;10.746;2022-08-14T02:10:40;15.60;99.90
8633;DHT22;4354;49.832;10.746;2022-08-14T02:13:17;15.60;99.90
8633;DHT22;4354;49.832;10.746;2022-08-14T02:15:59;15.60;99.90
8633;DHT22;4354;49.832;10.746;2022-08-14T02:18:53;15.60;99.90
8633;DHT22;4354;49.832;10.746;2022-08-14T02:21:26;15.50;99.90
8633;DHT22;4354;49.832;10.746;2022-08-14T02:24:18;15.50;99.90
8633;DHT22;4354;49.832;10.746;2022-08-14T02:27:10;15.40;99.90
8633;DHT22;4354;49.832;10.746;2022-08-14T02:29:58;15.30;99.90
8633;DHT22;4354;49.832;10.746;2022-08-14T02:32:42;15.30;99.90
8633;DHT22;4354;49.832;10.746;2022-08-14T02:35:10;15.20;99.90
8633;DHT22;4354;49.832;10.746;2022-08-14T02:37:46;15.20;99.90
8633;DHT22;4354;49.832;10.746;2022-08-14T02:40:19;15.10;99.90
8633;DHT22;4354;49.832;10.746;2022-08-14T02:42:59;15.10;99.90
8633;DHT22;4354;49.832;10.746;2022-08-14T02:45:29;15.10;99.90
8633;DHT22;4354;49.832;10.746;2022-08-14T02:48:07;15.00;99.90
8633;DHT22;4354;49.832;10.746;2022-08-14T02:50:55;15.00;99.90
8633;DHT22;4354;49.832;10.746;2022-08-14T02:53:30;15.10;99.90
8633;DHT22;4354;49.832;10.746;2022-08-14T02:55:59;15.10;99.90
8633;DHT22;4354;49.832;10.746;2022-08-14T02:58:31;15.20;99.90
8633;DHT22;4354;49.832;10.746;2022-08-14T03:00:59;15.20;99.90
8633;DHT22;4354;49.832;10.746;2022-08-14T03:03:27;15.20;99.90
8633;DHT22;4354;49.832;10.746;2022-08-14T03:06:01;15.30;99.90
8633;DHT22;4354;49.832;10.746;2022-08-14T03:08:29;15.20;99.90
8633;DHT22;4354;49.832;10.746;2022-08-14T03:11:01;15.10;99.90
8633;DHT22;4354;49.832;10.746;2022-08-14T03:13:45;15.00;99.90
8633;DHT22;4354;49.832;10.746;2022-08-14T03:16:14;15.00;99.90
8633;DHT22;4354;49.832;10.746;2022-08-14T03:18:54;15.00;99.90
8633;DHT22;4354;49.832;10.746;2022-08-14T03:21:27;14.90;99.90
8633;DHT22;4354;49.832;10.746;2022-08-14T03:23:59;15.00;99.90
8633;DHT22;4354;49.832;10.746;2022-08-14T03:26:26;14.90;99.90
8633;DHT22;4354;49.832;10.746;2022-08-14T03:28:56;14.90;99.90
8633;DHT22;4354;49.832;10.746;2022-08-14T03:31:27;14.80;99.90
8633;DHT22;4354;49.832;10.746;2022-08-14T03:33:56;14.80;99.90
8633;DHT22;4354;49.832;10.746;2022-08-14T03:36:26;14.70;99.90
8633;DHT22;4354;49.832;10.746;2022-08-14T03:39:13;14.70;99.90
8633;DHT22;4354;49.832;10.746;2022-08-14T03:41:51;14.70;99.90
8633;DHT22;4354;49.832;10.746;2022-08-14T03:44:18;14.70;99.90
8633;DHT22;4354;49.832;10.746;2022-08-14T03:47:05;14.60;99.90
8633;DHT22;4354;49.832;10.746;2022-08-14T03:49:34;14.70;99.90
8633;DHT22;4354;49.832;10.746;2022-08-14T03:52:07;14.60;99.90
8633;DHT22;4354;49.832;10.746;2022-08-14T03:54:54;14.60;99.90
8633;DHT22;4354;49.832;10.746;2022-08-14T03:57:21;14.60;99.90
8633;DHT22;4354;49.832;10.746;2022-08-14T03:59:49;14.60;99.90
8633;DHT22;4354;49.832;10.746;2022-08-14T04:02:16;14.60;99.90
8633;DHT22;4354;49.832;10.746;2022-08-14T04:05:08;14.60;99.90
8633;DHT22;4354;49.832;10.746;2022-08-14T04:07:39;14.60;99.90
8633;DHT22;4354;49.832;10.746;2022-08-14T04:10:26;14.70;99.90
8633;DHT22;4354;49.832;10.746;2022-08-14T04:12:58;14.60;99.90
8633;DHT22;4354;49.832;10.746;2022-08-14T04:15:30;14.60;99.90
8633;DHT22;4354;49.832;10.746;2022-08-14T04:18:17;14.60;99.90
8633;DHT22;4354;49.832;10.746;2022-08-14T04:20:44;14.50;99.90
8633;DHT22;4354;49.832;10.746;2022-08-14T04:23:22;14.50;99.90
8633;DHT22;4354;49.832;10.746;2022-08-14T04:26:03;14.50;99.90
8633;DHT22;4354;49.832;10.746;2022-08-14T04:28:34;14.50;99.90
8633;DHT22;4354;49.832;10.746;2022-08-14T04:31:23;14.50;99.90
8633;DHT22;4354;49.832;10.746;2022-08-14T04:34:11;14.60;99.90
8633;DHT22;4354;49.832;10.746;2022-08-14T04:36:53;14.70;99.90
8633;DHT22;4354;49.832;10.746;2022-08-14T04:39:38;14.70;99.90
8633;DHT22;4354;49.832;10.746;2022-08-14T04:42:25;14.80;99.90
8633;DHT22;4354;49.832;10.746;2022-08-14T04:45:19;14.70;99.90
8633;DHT22;4354;49.832;10.746;2022-08-14T04:47:46;14.80;99.90
8633;DHT22;4354;49.832;10.746;2022-08-14T04:50:37;14.80;99.90
8633;DHT22;4354;49.832;10.746;2022-08-14T04:53:17;14.80;99.90
8633;DHT22;4354;49.832;10.746;2022-08-14T04:55:52;14.90;99.90
8633;DHT22;4354;49.832;10.746;2022-08-14T04:58:22;14.90;99.90
8633;DHT22;4354;49.832;10.746;2022-08-14T05:01:00;15.00;99.90
8633;DHT22;4354;49.832;10.746;2022-08-14T05:03:31;15.10;99.90
8633;DHT22;4354;49.832;10.746;2022-08-14T05:06:01;15.10;99.90
8633;DHT22;4354;49.832;10.746;2022-08-14T05:08:29;15.20;99.90
8633;DHT22;4354;49.832;10.746;2022-08-14T05:11:17;15.30;99.90
8633;DHT22;4354;49.832;10.746;2022-08-14T05:13:45;15.30;99.90
8633;DHT22;4354;49.832;10.746;2022-08-14T05:16:32;15.40;99.90
8633;DHT22;4354;49.832;10.746;2022-08-14T05:18:59;15.40;99.90
8633;DHT22;4354;49.832;10.746;2022-08-14T05:21:46;15.50;99.90
8633;DHT22;4354;49.832;10.746;2022-08-14T05:24:28;15.60;99.90
8633;DHT22;4354;49.832;10.746;2022-08-14T05:26:55;15.60;99.90
8633;DHT22;4354;49.832;10.746;2022-08-14T05:29:22;15.70;99.90
8633;DHT22;4354;49.832;10.746;2022-08-14T05:31:49;15.80;99.90
8633;DHT22;4354;49.832;10.746;2022-08-14T05:34:23;15.90;99.90
8633;DHT22;4354;49.832;10.746;2022-08-14T05:37:01;16.10;99.90
8633;DHT22;4354;49.832;10.746;2022-08-14T05:39:32;16.20;99.90
8633;DHT22;4354;49.832;10.746;2022-08-14T05:41:59;16.20;99.90
8633;DHT22;4354;49.832;10.746;2022-08-14T05:44:35;16.30;99.90
8633;DHT22;4354;49.832;10.746;2022-08-14T05:47:02;16.40;99.90
8633;DHT22;4354;49.832;10.746;2022-08-14T05:49:30;16.60;99.90
8633;DHT22;4354;49.832;10.746;2022-08-14T05:52:00;16.70;99.90
8633;DHT22;4354;49.832;10.746;2022-08-14T05:54:29;16.80;99.90
8633;DHT22;4354;49.832;10.746;2022-08-14T05:57:02;16.90;99.90
8633;DHT22;4354;49.832;10.746;2022-08-14T05:59:30;16.90;99.90
8633;DHT22;4354;49.832;10.746;2022-08-14T06:02:08;17.10;99.90
8633;DHT22;4354;49.832;10.746;2022-08-14T06:04:37;17.20;99.90
8633;DHT22;4354;49.832;10.746;2022-08-14T06:07:05;17.30;99.90
8633;DHT22;4354;49.832;10.746;2022-08-14T06:09:32;17.50;99.90
8633;DHT22;4354;49.832;10.746;2022-08-14T06:12:09;17.50;99.90
8633;DHT22;4354;49.832;10.746;2022-08-14T06:14:37;17.80;99.90
8633;DHT22;4354;49.832;10.746;2022-08-14T06:17:05;17.80;99.90
8633;DHT22;4354;49.832;10.746;2022-08-14T06:19:35;17.90;99.90
8633;DHT22;4354;49.832;10.746;2022-08-14T06:22:02;18.00;99.90
8633;DHT22;4354;49.832;10.746;2022-08-14T06:24:29;18.10;99.90
8633;DHT22;4354;49.832;10.746;2022-08-14T06:27:02;18.30;99.90
8633;DHT22;4354;49.832;10.746;2022-08-14T06:29:36;18.40;99.90
8633;DHT22;4354;49.832;10.746;2022-08-14T06:32:04;18.50;99.90
8633;DHT22;4354;49.832;10.746;2022-08-14T06:34:51;18.70;99.90
8633;DHT22;4354;49.832;10.746;2022-08-14T06:40:21;19.10;99.90
8633;DHT22;4354;49.832;10.746;2022-08-14T06:43:20;19.30;99.90
8633;DHT22;4354;49.832;10.746;2022-08-14T06:45:50;19.50;99.90
8633;DHT22;4354;49.832;10.746;2022-08-14T06:48:24;19.60;99.90
8633;DHT22;4354;49.832;10.746;2022-08-14T06:50:52;19.80;99.90
8633;DHT22;4354;49.832;10.746;2022-08-14T06:53:20;20.00;99.90
8633;DHT22;4354;49.832;10.746;2022-08-14T06:55:53;20.10;99.90
8633;DHT22;4354;49.832;10.746;2022-08-14T06:58:28;20.30;99.90
8633;DHT22;4354;49.832;10.746;2022-08-14T07:00:58;20.40;99.90
8633;DHT22;4354;49.832;10.746;2022-08-14T07:03:55;20.60;99.90
8633;DHT22;4354;49.832;10.746;2022-08-14T07:06:49;20.90;99.90
8633;DHT22;4354;49.832;10.746;2022-08-14T07:09:16;21.10;99.90
8633;DHT22;4354;49.832;10.746;2022-08-14T07:11:49;21.30;99.90
8633;DHT22;4354;49.832;10.746;2022-08-14T07:14:16;21.50;99.90
8633;DHT22;4354;49.832;10.746;2022-08-14T07:16:46;21.70;99.90
8633;DHT22;4354;49.832;10.746;2022-08-14T07:19:16;21.80;99.90
8633;DHT22;4354;49.832;10.746;2022-08-14T07:21:46;22.00;99.90
8633;DHT22;4354;49.832;10.746;2022-08-14T07:24:13;22.20;99.90
8633;DHT22;4354;49.832;10.746;2022-08-14T07:26:52;22.30;99.90
8633;DHT22;4354;49.832;10.746;2022-08-14T07:29:19;22.50;99.90
8633;DHT22;4354;49.832;10.746;2022-08-14T07:31:52;23.00;99.90
8633;DHT22;4354;49.832;10.746;2022-08-14T07:34:19;24.40;99.90
8633;DHT22;4354;49.832;10.746;2022-08-14T07:37:03;26.50;99.90
8633;DHT22;4354;49.832;10.746;2022-08-14T07:39:30;28.60;99.90
8633;DHT22;4354;49.832;10.746;2022-08-14T07:42:00;30.60;99.90
8633;DHT22;4354;49.832;10.746;2022-08-14T07:44:27;32.70;96.30
8633;DHT22;4354;49.832;10.746;2022-08-14T07:47:11;34.40;90.50
8633;DHT22;4354;49.832;10.746;2022-08-14T07:49:40;35.80;77.90
8633;DHT22;4354;49.832;10.746;2022-08-14T07:52:09;36.30;72.40
8633;DHT22;4354;49.832;10.746;2022-08-14T07:54:40;36.60;68.50
8633;DHT22;4354;49.832;10.746;2022-08-14T07:57:08;37.70;64.20
8633;DHT22;4354;49.832;10.746;2022-08-14T07:59:39;38.80;60.00
8633;DHT22;4354;49.832;10.746;2022-08-14T08:02:11;38.90;57.20
8633;DHT22;4354;49.832;10.746;2022-08-14T08:04:50;39.40;56.20
8633;DHT22;4354;49.832;10.746;2022-08-14T08:07:26;39.70;54.90
8633;DHT22;4354;49.832;10.746;2022-08-14T08:09:58;40.60;52.10
8633;DHT22;4354;49.832;10.746;2022-08-14T08:12:27;40.50;51.10
8633;DHT22;4354;49.832;10.746;2022-08-14T08:14:57;41.10;49.40
8633;DHT22;4354;49.832;10.746;2022-08-14T08:17:36;40.80;48.80
8633;DHT22;4354;49.832;10.746;2022-08-14T08:20:25;41.20;48.30
8633;DHT22;4354;49.832;10.746;2022-08-14T08:22:56;41.10;47.70
8633;DHT22;4354;49.832;10.746;2022-08-14T08:25:34;40.70;46.60
8633;DHT22;4354;49.832;10.746;2022-08-14T08:28:11;39.80;47.50
8633;DHT22;4354;49.832;10.746;2022-08-14T08:31:02;40.30;47.80
8633;DHT22;4354;49.832;10.746;2022-08-14T08:33:32;40.10;46.20
8633;DHT22;4354;49.832;10.746;2022-08-14T08:36:05;39.50;48.20
8633;DHT22;4354;49.832;10.746;2022-08-14T08:38:38;40.20;47.00
8633;DHT22;4354;49.832;10.746;2022-08-14T08:41:24;41.30;46.90
8633;DHT22;4354;49.832;10.746;2022-08-14T08:44:04;42.20;45.10
8633;DHT22;4354;49.832;10.746;2022-08-14T08:46:43;42.60;44.40
8633;DHT22;4354;49.832;10.746;2022-08-14T08:49:13;41.90;43.20
8633;DHT22;4354;49.832;10.746;2022-08-14T08:51:40;40.20;44.20
8633;DHT22;4354;49.832;10.746;2022-08-14T08:54:11;40.90;44.60
8633;DHT22;4354;49.832;10.746;2022-08-14T08:56:49;41.10;43.90
8633;DHT22;4354;49.832;10.746;2022-08-14T08:59:31;40.60;43.70
8633;DHT22;4354;49.832;10.746;2022-08-14T09:02:06;41.10;43.20
8633;DHT22;4354;49.832;10.746;2022-08-14T09:04:39;41.20;42.30
8633;DHT22;4354;49.832;10.746;2022-08-14T09:07:24;41.70;42.50
8633;DHT22;4354;49.832;10.746;2022-08-14T09:09:52;41.70;42.90
8633;DHT22;4354;49.832;10.746;2022-08-14T09:12:26;42.60;41.60
8633;DHT22;4354;49.832;10.746;2022-08-14T09:15:00;42.50;41.50
8633;DHT22;4354;49.832;10.746;2022-08-14T09:17:28;43.00;40.60
8633;DHT22;4354;49.832;10.746;2022-08-14T09:19:56;43.00;40.10
8633;DHT22;4354;49.832;10.746;2022-08-14T09:22:27;42.10;40.40
8633;DHT22;4354;49.832;10.746;2022-08-14T09:25:04;41.30;40.60
8633;DHT22;4354;49.832;10.746;2022-08-14T09:27:35;41.20;41.30
8633;DHT22;4354;49.832;10.746;2022-08-14T09:30:04;41.20;40.80
8633;DHT22;4354;49.832;10.746;2022-08-14T09:45:17;40.60;42.00
8633;DHT22;4354;49.832;10.746;2022-08-14T09:50:19;42.70;40.30
8633;DHT22;4354;49.832;10.746;2022-08-14T09:52:52;43.20;39.20
8633;DHT22;4354;49.832;10.746;2022-08-14T09:55:24;43.30;39.50
8633;DHT22;4354;49.832;10.746;2022-08-14T09:58:15;42.40;40.00
8633;DHT22;4354;49.832;10.746;2022-08-14T10:00:50;41.40;40.00
8633;DHT22;4354;49.832;10.746;2022-08-14T10:03:29;39.70;41.30
8633;DHT22;4354;49.832;10.746;2022-08-14T10:06:11;39.20;42.30
8633;DHT22;4354;49.832;10.746;2022-08-14T10:13:51;39.60;41.30
8633;DHT22;4354;49.832;10.746;2022-08-14T10:16:26;40.20;40.50
8633;DHT22;4354;49.832;10.746;2022-08-14T10:19:09;39.90;40.30
8633;DHT22;4354;49.832;10.746;2022-08-14T10:21:38;40.70;39.60
8633;DHT22;4354;49.832;10.746;2022-08-14T10:24:30;40.30;39.90
8633;DHT22;4354;49.832;10.746;2022-08-14T10:27:03;41.20;40.00
8633;DHT22;4354;49.832;10.746;2022-08-14T10:29:35;40.60;39.30
8633;DHT22;4354;49.832;10.746;2022-08-14T10:32:06;39.40;40.50
8633;DHT22;4354;49.832;10.746;2022-08-14T10:35:04;38.60;41.30
8633;DHT22;4354;49.832;10.746;2022-08-14T10:37:46;37.00;43.40
8633;DHT22;4354;49.832;10.746;2022-08-14T10:40:34;38.00;42.70
8633;DHT22;4354;49.832;10.746;2022-08-14T10:43:23;38.50;42.20
8633;DHT22;4354;49.832;10.746;2022-08-14T10:45:58;37.90;43.40
8633;DHT22;4354;49.832;10.746;2022-08-14T10:49:00;38.20;43.10
8633;DHT22;4354;49.832;10.746;2022-08-14T10:51:32;35.80;43.90
8633;DHT22;4354;49.832;10.746;2022-08-14T10:54:08;35.20;46.10
8633;DHT22;4354;49.832;10.746;2022-08-14T10:59:55;34.40;46.80
8633;DHT22;4354;49.832;10.746;2022-08-14T11:02:34;33.60;47.90
8633;DHT22;4354;49.832;10.746;2022-08-14T11:05:20;33.30;48.90
8633;DHT22;4354;49.832;10.746;2022-08-14T11:10:25;36.70;45.20
8633;DHT22;4354;49.832;10.746;2022-08-14T11:12:56;37.60;43.90
8633;DHT22;4354;49.832;10.746;2022-08-14T11:15:25;36.90;44.10
8633;DHT22;4354;49.832;10.746;2022-08-14T11:17:54;35.30;45.70
8633;DHT22;4354;49.832;10.746;2022-08-14T11:20:30;35.60;45.90
8633;DHT22;4354;49.832;10.746;2022-08-14T11:22:59;36.10;45.10
8633;DHT22;4354;49.832;10.746;2022-08-14T11:25:29;37.00;44.60
8633;DHT22;4354;49.832;10.746;2022-08-14T11:28:11;38.50;44.00
8633;DHT22;4354;49.832;10.746;2022-08-14T11:30:47;38.00;42.90
8633;DHT22;4354;49.832;10.746;2022-08-14T11:33:24;36.60;44.40
8633;DHT22;4354;49.832;10.746;2022-08-14T11:35:54;35.10;45.60
8633;DHT22;4354;49.832;10.746;2022-08-14T11:38:26;33.90;47.40
8633;DHT22;4354;49.832;10.746;2022-08-14T11:40:57;33.20;48.40
8633;DHT22;4354;49.832;10.746;2022-08-14T11:43:27;33.70;48.40
8633;DHT22;4354;49.832;10.746;2022-08-14T11:45:59;34.30;47.90
8633;DHT22;4354;49.832;10.746;2022-08-14T11:48:32;35.60;46.80
8633;DHT22;4354;49.832;10.746;2022-08-14T11:51:30;35.90;45.60
8633;DHT22;4354;49.832;10.746;2022-08-14T11:54:16;35.10;45.90
8633;DHT22;4354;49.832;10.746;2022-08-14T11:56:45;35.00;46.10
8633;DHT22;4354;49.832;10.746;2022-08-14T11:59:18;34.80;46.80
8633;DHT22;4354;49.832;10.746;2022-08-14T12:01:52;34.30;47.50
8633;DHT22;4354;49.832;10.746;2022-08-14T12:04:20;34.10;47.40
8633;DHT22;4354;49.832;10.746;2022-08-14T12:07:00;33.60;47.90
8633;DHT22;4354;49.832;10.746;2022-08-14T12:09:35;33.80;48.10
8633;DHT22;4354;49.832;10.746;2022-08-14T12:12:17;34.50;48.00
8633;DHT22;4354;49.832;10.746;2022-08-14T12:15:03;35.10;45.90
8633;DHT22;4354;49.832;10.746;2022-08-14T12:17:46;34.30;46.90
8633;DHT22;4354;49.832;10.746;2022-08-14T12:20:32;33.80;47.00
8633;DHT22;4354;49.832;10.746;2022-08-14T12:23:01;33.60;47.40
8633;DHT22;4354;49.832;10.746;2022-08-14T12:25:31;32.70;48.20
8633;DHT22;4354;49.832;10.746;2022-08-14T12:28:04;32.90;48.20
8633;DHT22;4354;49.832;10.746;2022-08-14T12:30:53;33.20;49.00
8633;DHT22;4354;49.832;10.746;2022-08-14T12:33:28;33.10;48.70
8633;DHT22;4354;49.832;10.746;2022-08-14T12:36:01;33.60;48.00
8633;DHT22;4354;49.832;10.746;2022-08-14T12:41:02;32.80;48.30
8633;DHT22;4354;49.832;10.746;2022-08-14T12:43:31;32.40;49.00
8633;DHT22;4354;49.832;10.746;2022-08-14T12:45:59;32.50;49.50
8633;DHT22;4354;49.832;10.746;2022-08-14T12:48:27;32.30;50.10
8633;DHT22;4354;49.832;10.746;2022-08-14T12:50:58;32.50;50.10
8633;DHT22;4354;49.832;10.746;2022-08-14T12:53:34;32.40;49.50
8633;DHT22;4354;49.832;10.746;2022-08-14T12:56:04;32.60;49.20
8633;DHT22;4354;49.832;10.746;2022-08-14T12:58:57;33.10;48.80
8633;DHT22;4354;49.832;10.746;2022-08-14T13:01:29;33.50;48.10
8633;DHT22;4354;49.832;10.746;2022-08-14T13:04:17;33.40;48.30
8633;DHT22;4354;49.832;10.746;2022-08-14T13:06:46;33.30;47.50
8633;DHT22;4354;49.832;10.746;2022-08-14T13:09:17;32.90;47.40
8633;DHT22;4354;49.832;10.746;2022-08-14T13:11:49;32.50;49.00
8633;DHT22;4354;49.832;10.746;2022-08-14T13:14:37;31.90;49.00
8633;DHT22;4354;49.832;10.746;2022-08-14T13:17:04;31.60;49.30
8633;DHT22;4354;49.832;10.746;2022-08-14T13:19:38;31.60;49.50
8633;DHT22;4354;49.832;10.746;2022-08-14T13:22:06;31.40;50.10
8633;DHT22;4354;49.832;10.746;2022-08-14T13:24:53;30.90;50.50
8633;DHT22;4354;49.832;10.746;2022-08-14T13:27:24;30.90;51.70
8633;DHT22;4354;49.832;10.746;2022-08-14T13:29:56;31.20;52.00
8633;DHT22;4354;49.832;10.746;2022-08-14T13:32:24;31.60;51.50
8633;DHT22;4354;49.832;10.746;2022-08-14T13:34:51;31.80;50.80
8633;DHT22;4354;49.832;10.746;2022-08-14T13:37:18;31.90;49.90
8633;DHT22;4354;49.832;10.746;2022-08-14T13:39:50;32.20;49.90
8633;DHT22;4354;49.832;10.746;2022-08-14T13:42:25;32.40;49.20
8633;DHT22;4354;49.832;10.746;2022-08-14T13:44:59;32.50;49.00
8633;DHT22;4354;49.832;10.746;2022-08-14T13:47:28;32.40;49.80
8633;DHT22;4354;49.832;10.746;2022-08-14T13:49:59;32.40;49.00
8633;DHT22;4354;49.832;10.746;2022-08-14T13:52:43;32.10;49.40
8633;DHT22;4354;49.832;10.746;2022-08-14T13:55:26;32.30;50.70
8633;DHT22;4354;49.832;10.746;2022-08-14T13:57:59;32.40;50.70
8633;DHT22;4354;49.832;10.746;2022-08-14T14:00:35;32.40;50.40
8633;DHT22;4354;49.832;10.746;2022-08-14T14:03:22;32.40;50.20
8633;DHT22;4354;49.832;10.746;2022-08-14T14:05:52;32.10;50.50
8633;DHT22;4354;49.832;10.746;2022-08-14T14:08:23;32.10;50.20
8633;DHT22;4354;49.832;10.746;2022-08-14T14:11:11;32.30;50.50
8633;DHT22;4354;49.832;10.746;2022-08-14T14:13:43;32.10;50.00
8633;DHT22;4354;49.832;10.746;2022-08-14T14:16:13;32.20;50.40
8633;DHT22;4354;49.832;10.746;2022-08-14T14:18:56;32.10;50.50
8633;DHT22;4354;49.832;10.746;2022-08-14T14:21:36;32.20;50.70
8633;DHT22;4354;49.832;10.746;2022-08-14T14:24:06;32.10;50.30
8633;DHT22;4354;49.832;10.746;2022-08-14T14:26:33;32.20;49.70
8633;DHT22;4354;49.832;10.746;2022-08-14T14:29:02;32.10;49.90
8633;DHT22;4354;49.832;10.746;2022-08-14T14:31:35;31.80;50.30
8633;DHT22;4354;49.832;10.746;2022-08-14T14:34:07;31.60;51.20
8633;DHT22;4354;49.832;10.746;2022-08-14T14:36:58;31.30;51.30
8633;DHT22;4354;49.832;10.746;2022-08-14T14:39:31;30.80;51.20
8633;DHT22;4354;49.832;10.746;2022-08-14T14:42:04;30.50;51.90
8633;DHT22;4354;49.832;10.746;2022-08-14T14:44:34;30.40;52.40
8633;DHT22;4354;49.832;10.746;2022-08-14T14:47:10;30.50;52.50
8633;DHT22;4354;49.832;10.746;2022-08-14T14:49:37;30.70;52.40
8633;DHT22;4354;49.832;10.746;2022-08-14T14:52:20;31.00;51.80
8633;DHT22;4354;49.832;10.746;2022-08-14T14:54:57;31.20;51.10
8633;DHT22;4354;49.832;10.746;2022-08-14T14:57:27;31.30;50.80
8633;DHT22;4354;49.832;10.746;2022-08-14T15:00:08;31.40;50.30
8633;DHT22;4354;49.832;10.746;2022-08-14T15:02:49;31.30;50.00
8633;DHT22;4354;49.832;10.746;2022-08-14T15:05:18;31.20;49.90
8633;DHT22;4354;49.832;10.746;2022-08-14T15:07:48;31.20;50.50
8633;DHT22;4354;49.832;10.746;2022-08-14T15:10:19;31.20;50.40
8633;DHT22;4354;49.832;10.746;2022-08-14T15:12:58;31.30;49.90
8633;DHT22;4354;49.832;10.746;2022-08-14T15:15:29;31.30;50.30
8633;DHT22;4354;49.832;10.746;2022-08-14T15:17:58;31.60;50.70
8633;DHT22;4354;49.832;10.746;2022-08-14T15:20:27;31.30;50.00
8633;DHT22;4354;49.832;10.746;2022-08-14T15:22:57;31.40;50.30
8633;DHT22;4354;49.832;10.746;2022-08-14T15:25:33;31.60;48.80
8633;DHT22;4354;49.832;10.746;2022-08-14T15:28:01;31.60;48.50
8633;DHT22;4354;49.832;10.746;2022-08-14T15:30:30;31.80;48.80
8633;DHT22;4354;49.832;10.746;2022-08-14T15:32:58;31.90;49.20
8633;DHT22;4354;49.832;10.746;2022-08-14T15:35:26;31.90;50.00
8633;DHT22;4354;49.832;10.746;2022-08-14T15:38:03;32.00;49.20
8633;DHT22;4354;49.832;10.746;2022-08-14T15:40:39;31.90;49.80
8633;DHT22;4354;49.832;10.746;2022-08-14T15:43:07;31.60;49.80
8633;DHT22;4354;49.832;10.746;2022-08-14T15:45:40;31.30;50.20
8633;DHT22;4354;49.832;10.746;2022-08-14T15:48:07;31.10;51.20
8633;DHT22;4354;49.832;10.746;2022-08-14T15:50:48;30.90;51.50
8633;DHT22;4354;49.832;10.746;2022-08-14T15:53:17;30.80;51.70
8633;DHT22;4354;49.832;10.746;2022-08-14T15:55:45;30.70;51.90
8633;DHT22;4354;49.832;10.746;2022-08-14T15:58:13;30.60;52.30
8633;DHT22;4354;49.832;10.746;2022-08-14T16:00:40;30.60;52.00
8633;DHT22;4354;49.832;10.746;2022-08-14T16:03:25;30.90;51.50
8633;DHT22;4354;49.832;10.746;2022-08-14T16:06:05;31.10;50.90
8633;DHT22;4354;49.832;10.746;2022-08-14T16:08:42;31.40;50.40
8633;DHT22;4354;49.832;10.746;2022-08-14T16:11:26;31.60;50.20
8633;DHT22;4354;49.832;10.746;2022-08-14T16:13:58;31.60;49.90
8633;DHT22;4354;49.832;10.746;2022-08-14T16:16:29;31.60;49.70
8633;DHT22;4354;49.832;10.746;2022-08-14T16:19:18;31.40;50.40
8633;DHT22;4354;49.832;10.746;2022-08-14T16:21:45;31.30;50.30
8633;DHT22;4354;49.832;10.746;2022-08-14T16:24:39;31.20;50.70
8633;DHT22;4354;49.832;10.746;2022-08-14T16:27:26;30.90;50.50
8633;DHT22;4354;49.832;10.746;2022-08-14T16:30:07;30.80;50.50
8633;DHT22;4354;49.832;10.746;2022-08-14T16:32:56;30.70;51.00
8633;DHT22;4354;49.832;10.746;2022-08-14T16:35:26;30.60;51.80
8633;DHT22;4354;49.832;10.746;2022-08-14T16:38:15;30.50;51.90
8633;DHT22;4354;49.832;10.746;2022-08-14T16:41:04;30.50;51.90
8633;DHT22;4354;49.832;10.746;2022-08-14T16:43:50;30.40;51.90
8633;DHT22;4354;49.832;10.746;2022-08-14T16:46:18;30.40;52.00
8633;DHT22;4354;49.832;10.746;2022-08-14T16:48:50;30.20;51.50
8633;DHT22;4354;49.832;10.746;2022-08-14T16:51:24;30.10;51.30
8633;DHT22;4354;49.832;10.746;2022-08-14T16:53:57;30.00;51.80
8633;DHT22;4354;49.832;10.746;2022-08-14T16:56:28;30.00;51.40
8633;DHT22;4354;49.832;10.746;2022-08-14T16:59:22;29.90;52.40
8633;DHT22;4354;49.832;10.746;2022-08-14T17:02:10;29.90;53.10
8633;DHT22;4354;49.832;10.746;2022-08-14T17:04:38;29.90;52.70
8633;DHT22;4354;49.832;10.746;2022-08-14T17:07:12;29.80;53.00
8633;DHT22;4354;49.832;10.746;2022-08-14T17:09:43;29.80;53.50
8633;DHT22;4354;49.832;10.746;2022-08-14T17:12:20;29.70;53.50